Main page
METAR-TAF:

METAR-TAF

Airports :

Prince Said Ibrahim International Airport

Moroni, Comoros

latitude: 11-32S, longitude: 043-16E, elevation: 29 m

Current weather observation

The report was made 28 minutes ago, at 10:00 UTC
Wind 15 kt from the East/Southeast
Temperature 31°C
Humidity 49%
Pressure 1018 hPa
Visibility 10 km or more
Few clouds at a height of 2000 ft

METAR: FMCH 151000Z 12015KT 9999 FEW020 31/19 Q1018 NOSIG

Time: 13:28 (10:28 UTC)

Forecast

The report was made 5 hours and 28 minutes ago, at 05:00 UTC
Forecast valid from 15 at 06 UTC to 16 at 12 UTC
Wind 10 kt from the East/Southeast
Visibility 10 km or more
Few clouds at a height of 2000 ft
Scattered clouds at a height of 3000 ft
Becoming
from 15 at 16 UTC to 15 at 20 UTC
Wind 5 kt from variable directions
Becoming
from 16 at 06 UTC to 16 at 10 UTC
Wind 10 kt from the South

TAF: FMCH 150500Z 1506/1612 12010KT 9999 FEW020 SCT030 BECMG 1516/1520 VRB05KT BECMG 1606/1610 19010KT

Weather observations and forecasts of more than 4000 airports (METAR and TAF reports).

The available stations are represented by yellow and red dots on the map.

Hover mouse over dot to see the name of the station.

Then click to see weather observations and forecasts.

To change the map : click on the green buttons with a black cross to zoom in, on the green button with a dash to zoom out, or on the green arrows for adjacent maps.


METAR-TAF: